In Rescue
 
Open Full Screen Window  High Contrast Mode
July 25, 2021 8:14 AM EDT
Weather Information
Wind Direction
  ---
Wind Speed
  00 kt (0 mph)
Wind Gust
  00 kt (0 mph)
Altimeter
29.88 in
Visibility
10 SM
Temperature
19° C
66° F
Dewpoint
18° C
64° F
Humidity
94%
Sky Condition
Clear
VFR

METAR KACB 251214Z AUTO 00000KT 10SM CLR 19/18 A2988 RMK AO2 T01920176

FAA Disclaimer: The data displayed is for advisory purposes only and is not to be used for flight planning or operations.